sensor_id;sensor_type;location;lat;lon;timestamp;pressure;altitude;pressure_sealevel;temperature;humidity
26443;BME280;5563;52.296;6.806;2023-07-31T00:02:03;100832.41;;;14.50;100.00
26443;BME280;5563;52.296;6.806;2023-07-31T00:04:37;100838.06;;;14.47;100.00
26443;BME280;5563;52.296;6.806;2023-07-31T00:07:10;100833.84;;;14.45;100.00
26443;BME280;5563;52.296;6.806;2023-07-31T00:09:44;100831.31;;;14.43;100.00
26443;BME280;5563;52.296;6.806;2023-07-31T00:12:11;100829.47;;;14.44;100.00
26443;BME280;5563;52.296;6.806;2023-07-31T00:14:44;100827.94;;;14.41;100.00
26443;BME280;5563;52.296;6.806;2023-07-31T00:17:11;100827.94;;;14.41;100.00
26443;BME280;5563;52.296;6.806;2023-07-31T00:19:50;100818.47;;;14.37;100.00
26443;BME280;5563;52.296;6.806;2023-07-31T00:22:17;100824.53;;;14.39;100.00
26443;BME280;5563;52.296;6.806;2023-07-31T00:24:51;100819.34;;;14.38;100.00
26443;BME280;5563;52.296;6.806;2023-07-31T00:27:18;100822.88;;;14.38;100.00
26443;BME280;5563;52.296;6.806;2023-07-31T00:29:51;100825.56;;;14.38;100.00
26443;BME280;5563;52.296;6.806;2023-07-31T00:32:18;100806.78;;;14.38;100.00
26443;BME280;5563;52.296;6.806;2023-07-31T00:34:52;100805.94;;;14.38;100.00
26443;BME280;5563;52.296;6.806;2023-07-31T00:37:19;100812.28;;;14.37;100.00
26443;BME280;5563;52.296;6.806;2023-07-31T00:39:52;100809.47;;;14.38;100.00
26443;BME280;5563;52.296;6.806;2023-07-31T00:42:28;100804.78;;;14.40;100.00
26443;BME280;5563;52.296;6.806;2023-07-31T00:44:55;100809.31;;;14.40;100.00
26443;BME280;5563;52.296;6.806;2023-07-31T00:47:29;100798.19;;;14.35;100.00
26443;BME280;5563;52.296;6.806;2023-07-31T00:49:57;100792.28;;;14.31;100.00
26443;BME280;5563;52.296;6.806;2023-07-31T00:52:30;100812.84;;;14.40;100.00
26443;BME280;5563;52.296;6.806;2023-07-31T00:54:57;100792.13;;;14.33;100.00
26443;BME280;5563;52.296;6.806;2023-07-31T00:57:32;100774.47;;;14.30;100.00
26443;BME280;5563;52.296;6.806;2023-07-31T01:00:03;100788.28;;;14.35;100.00
26443;BME280;5563;52.296;6.806;2023-07-31T01:02:37;100773.50;;;14.31;100.00
26443;BME280;5563;52.296;6.806;2023-07-31T01:05:05;100783.34;;;14.40;100.00
26443;BME280;5563;52.296;6.806;2023-07-31T01:07:50;100757.69;;;14.28;100.00
26443;BME280;5563;52.296;6.806;2023-07-31T01:10:22;100771.91;;;14.38;100.00
26443;BME280;5563;52.296;6.806;2023-07-31T01:12:57;100761.75;;;14.32;100.00
26443;BME280;5563;52.296;6.806;2023-07-31T01:15:36;100755.53;;;14.32;100.00
26443;BME280;5563;52.296;6.806;2023-07-31T01:18:06;100750.88;;;14.34;100.00
26443;BME280;5563;52.296;6.806;2023-07-31T01:20:42;100749.38;;;14.31;100.00
26443;BME280;5563;52.296;6.806;2023-07-31T01:24:41;100738.78;;;14.30;100.00
26443;BME280;5563;52.296;6.806;2023-07-31T01:27:10;100756.25;;;14.34;100.00
26443;BME280;5563;52.296;6.806;2023-07-31T01:29:51;100748.50;;;14.31;100.00
26443;BME280;5563;52.296;6.806;2023-07-31T01:32:28;100746.69;;;14.31;100.00
26443;BME280;5563;52.296;6.806;2023-07-31T01:35:02;100744.97;;;14.30;100.00
26443;BME280;5563;52.296;6.806;2023-07-31T01:37:53;100749.91;;;14.35;100.00
26443;BME280;5563;52.296;6.806;2023-07-31T01:43:51;100748.03;;;14.35;100.00
26443;BME280;5563;52.296;6.806;2023-07-31T01:46:25;100741.16;;;14.33;100.00
26443;BME280;5563;52.296;6.806;2023-07-31T01:48:52;100747.22;;;14.35;100.00
26443;BME280;5563;52.296;6.806;2023-07-31T01:51:26;100732.97;;;14.34;100.00
26443;BME280;5563;52.296;6.806;2023-07-31T01:54:16;100736.34;;;14.36;100.00
26443;BME280;5563;52.296;6.806;2023-07-31T01:56:49;100734.50;;;14.37;100.00
26443;BME280;5563;52.296;6.806;2023-07-31T01:59:16;100736.03;;;14.39;100.00
26443;BME280;5563;52.296;6.806;2023-07-31T02:01:52;100727.00;;;14.40;100.00
26443;BME280;5563;52.296;6.806;2023-07-31T02:04:26;100725.13;;;14.41;100.00
26443;BME280;5563;52.296;6.806;2023-07-31T02:07:02;100709.50;;;14.36;100.00
26443;BME280;5563;52.296;6.806;2023-07-31T02:09:36;100731.91;;;14.45;100.00
26443;BME280;5563;52.296;6.806;2023-07-31T02:12:10;100711.88;;;14.39;100.00
26443;BME280;5563;52.296;6.806;2023-07-31T02:14:43;100718.50;;;14.45;100.00
26443;BME280;5563;52.296;6.806;2023-07-31T02:17:10;100711.28;;;14.45;100.00
26443;BME280;5563;52.296;6.806;2023-07-31T02:19:43;100725.63;;;14.54;100.00
26443;BME280;5563;52.296;6.806;2023-07-31T02:22:22;100700.72;;;14.44;100.00
26443;BME280;5563;52.296;6.806;2023-07-31T02:24:56;100710.13;;;14.48;100.00
26443;BME280;5563;52.296;6.806;2023-07-31T02:27:23;100705.16;;;14.53;100.00
26443;BME280;5563;52.296;6.806;2023-07-31T02:30:00;100696.97;;;14.54;100.00
26443;BME280;5563;52.296;6.806;2023-07-31T02:32:27;100705.84;;;14.55;100.00
26443;BME280;5563;52.296;6.806;2023-07-31T02:35:00;100709.38;;;14.55;100.00
26443;BME280;5563;52.296;6.806;2023-07-31T02:37:27;100703.00;;;14.56;100.00
26443;BME280;5563;52.296;6.806;2023-07-31T02:40:02;100701.16;;;14.57;100.00
26443;BME280;5563;52.296;6.806;2023-07-31T02:42:29;100690.59;;;14.55;100.00
26443;BME280;5563;52.296;6.806;2023-07-31T02:45:02;100691.44;;;14.56;100.00
26443;BME280;5563;52.296;6.806;2023-07-31T02:47:36;100692.28;;;14.56;100.00
26443;BME280;5563;52.296;6.806;2023-07-31T02:50:03;100691.44;;;14.56;100.00
26443;BME280;5563;52.296;6.806;2023-07-31T02:52:37;100683.25;;;14.57;100.00
26443;BME280;5563;52.296;6.806;2023-07-31T02:55:04;100690.97;;;14.60;100.00
26443;BME280;5563;52.296;6.806;2023-07-31T02:57:37;100692.53;;;14.63;100.00
26443;BME280;5563;52.296;6.806;2023-07-31T03:00:11;100695.75;;;14.66;100.00
26443;BME280;5563;52.296;6.806;2023-07-31T03:02:51;100682.00;;;14.69;100.00
26443;BME280;5563;52.296;6.806;2023-07-31T03:05:18;100676.03;;;14.75;100.00
26443;BME280;5563;52.296;6.806;2023-07-31T03:07:51;100680.75;;;14.81;100.00
26443;BME280;5563;52.296;6.806;2023-07-31T03:10:18;100674.94;;;14.86;100.00
26443;BME280;5563;52.296;6.806;2023-07-31T03:12:51;100673.50;;;14.91;100.00
26443;BME280;5563;52.296;6.806;2023-07-31T03:15:18;100664.59;;;14.91;100.00
26443;BME280;5563;52.296;6.806;2023-07-31T03:17:51;100669.63;;;14.94;100.00
26443;BME280;5563;52.296;6.806;2023-07-31T03:20:25;100663.97;;;14.97;100.00
26443;BME280;5563;52.296;6.806;2023-07-31T03:22:58;100665.47;;;14.99;100.00
26443;BME280;5563;52.296;6.806;2023-07-31T03:25:54;100668.00;;;15.01;100.00
26443;BME280;5563;52.296;6.806;2023-07-31T03:28:21;100669.56;;;15.03;100.00
26443;BME280;5563;52.296;6.806;2023-07-31T03:30:55;100673.91;;;15.04;100.00
26443;BME280;5563;52.296;6.806;2023-07-31T03:33:22;100664.00;;;15.05;100.00
26443;BME280;5563;52.296;6.806;2023-07-31T03:35:56;100667.22;;;15.08;100.00
26443;BME280;5563;52.296;6.806;2023-07-31T03:38:23;100665.41;;;15.09;100.00
26443;BME280;5563;52.296;6.806;2023-07-31T03:40:57;100663.53;;;15.09;100.00
26443;BME280;5563;52.296;6.806;2023-07-31T03:43:32;100674.81;;;15.13;100.00
26443;BME280;5563;52.296;6.806;2023-07-31T03:46:06;100669.44;;;15.13;100.00
26443;BME280;5563;52.296;6.806;2023-07-31T03:48:33;100665.75;;;15.14;100.00
26443;BME280;5563;52.296;6.806;2023-07-31T03:51:06;100669.81;;;15.18;100.00
26443;BME280;5563;52.296;6.806;2023-07-31T03:53:33;100670.34;;;15.22;100.00
26443;BME280;5563;52.296;6.806;2023-07-31T03:56:06;100670.03;;;15.25;100.00
26443;BME280;5563;52.296;6.806;2023-07-31T03:58:33;100671.03;;;15.24;100.00
26443;BME280;5563;52.296;6.806;2023-07-31T04:01:06;100676.09;;;15.27;100.00
26443;BME280;5563;52.296;6.806;2023-07-31T04:03:39;100673.09;;;15.30;100.00
26443;BME280;5563;52.296;6.806;2023-07-31T04:06:13;100676.63;;;15.30;100.00
26443;BME280;5563;52.296;6.806;2023-07-31T04:08:46;100671.94;;;15.32;100.00
26443;BME280;5563;52.296;6.806;2023-07-31T04:11:13;100663.03;;;15.32;100.00
26443;BME280;5563;52.296;6.806;2023-07-31T04:13:46;100664.69;;;15.33;100.00
26443;BME280;5563;52.296;6.806;2023-07-31T04:16:13;100658.34;;;15.34;100.00
26443;BME280;5563;52.296;6.806;2023-07-31T04:18:46;100660.00;;;15.35;100.00
26443;BME280;5563;52.296;6.806;2023-07-31T04:21:13;100667.25;;;15.34;100.00
26443;BME280;5563;52.296;6.806;2023-07-31T04:23:53;100675.31;;;15.34;100.00
26443;BME280;5563;52.296;6.806;2023-07-31T04:26:22;100663.72;;;15.34;100.00
26443;BME280;5563;52.296;6.806;2023-07-31T04:28:56;100661.03;;;15.34;100.00
26443;BME280;5563;52.296;6.806;2023-07-31T04:31:23;100656.63;;;15.33;100.00
26443;BME280;5563;52.296;6.806;2023-07-31T04:33:57;100663.72;;;15.34;100.00
26443;BME280;5563;52.296;6.806;2023-07-31T04:36:24;100658.34;;;15.34;100.00
26443;BME280;5563;52.296;6.806;2023-07-31T04:38:57;100664.69;;;15.33;100.00
26443;BME280;5563;52.296;6.806;2023-07-31T04:41:30;100658.66;;;15.31;100.00
26443;BME280;5563;52.296;6.806;2023-07-31T04:44:04;100650.44;;;15.32;100.00
26443;BME280;5563;52.296;6.806;2023-07-31T04:46:31;100660.34;;;15.32;100.00
26443;BME280;5563;52.296;6.806;2023-07-31T04:49:05;100663.03;;;15.32;100.00
26443;BME280;5563;52.296;6.806;2023-07-31T04:51:38;100635.81;;;15.27;100.00
26443;BME280;5563;52.296;6.806;2023-07-31T04:54:05;100651.44;;;15.31;100.00
26443;BME280;5563;52.296;6.806;2023-07-31T04:56:38;100645.38;;;15.29;100.00
26443;BME280;5563;52.296;6.806;2023-07-31T04:59:05;100644.38;;;15.30;100.00
26443;BME280;5563;52.296;6.806;2023-07-31T05:01:39;100654.28;;;15.30;100.00
26443;BME280;5563;52.296;6.806;2023-07-31T05:04:06;100639.34;;;15.27;100.00
26443;BME280;5563;52.296;6.806;2023-07-31T05:06:39;100635.28;;;15.23;100.00
26443;BME280;5563;52.296;6.806;2023-07-31T05:09:07;100643.69;;;15.28;100.00
26443;BME280;5563;52.296;6.806;2023-07-31T05:11:42;100633.97;;;15.27;100.00
26443;BME280;5563;52.296;6.806;2023-07-31T05:14:16;100634.09;;;15.26;100.00
26443;BME280;5563;52.296;6.806;2023-07-31T05:16:49;100638.81;;;15.24;100.00
26443;BME280;5563;52.296;6.806;2023-07-31T05:19:29;100645.84;;;15.25;100.00
26443;BME280;5563;52.296;6.806;2023-07-31T05:22:09;100634.75;;;15.20;100.00
26443;BME280;5563;52.296;6.806;2023-07-31T05:24:42;100627.38;;;15.22;100.00
26443;BME280;5563;52.296;6.806;2023-07-31T05:27:09;100633.91;;;15.19;100.00
26443;BME280;5563;52.296;6.806;2023-07-31T05:29:42;100632.22;;;15.18;100.00
26443;BME280;5563;52.296;6.806;2023-07-31T05:32:09;100631.72;;;15.14;100.00
26443;BME280;5563;52.296;6.806;2023-07-31T05:34:42;100633.03;;;15.18;100.00
26443;BME280;5563;52.296;6.806;2023-07-31T05:37:10;100614.56;;;15.15;100.00
26443;BME280;5563;52.296;6.806;2023-07-31T05:39:44;100628.38;;;15.21;100.00
26443;BME280;5563;52.296;6.806;2023-07-31T05:42:11;100626.69;;;15.20;100.00
26443;BME280;5563;52.296;6.806;2023-07-31T05:44:45;100630.38;;;15.18;100.00
26443;BME280;5563;52.296;6.806;2023-07-31T05:47:12;100628.38;;;15.21;100.00
26443;BME280;5563;52.296;6.806;2023-07-31T05:49:45;100624.16;;;15.18;100.00
26443;BME280;5563;52.296;6.806;2023-07-31T05:52:12;100610.22;;;15.14;100.00
26443;BME280;5563;52.296;6.806;2023-07-31T05:54:45;100629.38;;;15.20;100.00
26443;BME280;5563;52.296;6.806;2023-07-31T05:57:19;100612.56;;;15.18;100.00
26443;BME280;5563;52.296;6.806;2023-07-31T05:59:46;100617.63;;;15.21;100.00
26443;BME280;5563;52.296;6.806;2023-07-31T06:02:20;100610.41;;;15.21;100.00
26443;BME280;5563;52.296;6.806;2023-07-31T06:04:47;100618.31;;;15.23;100.00
26443;BME280;5563;52.296;6.806;2023-07-31T06:07:20;100615.47;;;15.24;100.00
26443;BME280;5563;52.296;6.806;2023-07-31T06:09:48;100619.84;;;15.25;100.00
26443;BME280;5563;52.296;6.806;2023-07-31T06:12:21;100615.97;;;15.28;100.00
26443;BME280;5563;52.296;6.806;2023-07-31T06:14:48;100608.28;;;15.33;100.00
26443;BME280;5563;52.296;6.806;2023-07-31T06:17:22;100614.19;;;15.36;100.00
26443;BME280;5563;52.296;6.806;2023-07-31T06:19:56;100610.34;;;15.39;100.00
26443;BME280;5563;52.296;6.806;2023-07-31T06:22:30;100616.56;;;15.39;100.00
26443;BME280;5563;52.296;6.806;2023-07-31T06:24:58;100605.31;;;15.36;100.00
26443;BME280;5563;52.296;6.806;2023-07-31T06:27:25;100609.81;;;15.35;100.00
26443;BME280;5563;52.296;6.806;2023-07-31T06:29:58;100604.94;;;15.31;100.00
26443;BME280;5563;52.296;6.806;2023-07-31T06:32:25;100606.63;;;15.32;100.00
26443;BME280;5563;52.296;6.806;2023-07-31T06:34:59;100606.63;;;15.32;100.00
26443;BME280;5563;52.296;6.806;2023-07-31T06:37:29;100597.03;;;15.29;100.00
26443;BME280;5563;52.296;6.806;2023-07-31T06:40:03;100598.19;;;15.27;100.00
26443;BME280;5563;52.296;6.806;2023-07-31T06:42:38;100594.81;;;15.25;100.00
26443;BME280;5563;52.296;6.806;2023-07-31T06:45:06;100579.66;;;15.15;100.00
26443;BME280;5563;52.296;6.806;2023-07-31T06:47:43;100588.41;;;15.18;100.00
26443;BME280;5563;52.296;6.806;2023-07-31T06:50:10;100571.09;;;15.12;100.00
26443;BME280;5563;52.296;6.806;2023-07-31T06:52:43;100569.88;;;15.06;100.00
26443;BME280;5563;52.296;6.806;2023-07-31T06:55:23;100581.31;;;15.08;100.00
26443;BME280;5563;52.296;6.806;2023-07-31T06:57:52;100592.94;;;15.17;100.00
26443;BME280;5563;52.296;6.806;2023-07-31T07:00:27;100584.06;;;15.17;100.00
26443;BME280;5563;52.296;6.806;2023-07-31T07:03:00;100595.63;;;15.17;100.00
26443;BME280;5563;52.296;6.806;2023-07-31T07:05:33;100566.72;;;15.11;100.00
26443;BME280;5563;52.296;6.806;2023-07-31T07:08:07;100562.56;;;15.17;100.00
26443;BME280;5563;52.296;6.806;2023-07-31T07:10:37;100561.38;;;15.19;100.00
26443;BME280;5563;52.296;6.806;2023-07-31T07:13:14;100568.66;;;15.27;100.00
26443;BME280;5563;52.296;6.806;2023-07-31T07:15:41;100567.34;;;15.31;100.00
26443;BME280;5563;52.296;6.806;2023-07-31T07:18:18;100539.44;;;15.24;100.00
26443;BME280;5563;52.296;6.806;2023-07-31T07:20:52;100542.47;;;15.29;100.00
26443;BME280;5563;52.296;6.806;2023-07-31T07:23:35;100559.00;;;15.42;100.00
26443;BME280;5563;52.296;6.806;2023-07-31T07:26:02;100557.69;;;15.46;100.00
26443;BME280;5563;52.296;6.806;2023-07-31T07:28:35;100558.38;;;15.48;100.00
26443;BME280;5563;52.296;6.806;2023-07-31T07:31:10;100555.84;;;15.46;100.00
26443;BME280;5563;52.296;6.806;2023-07-31T07:33:37;100545.63;;;15.50;100.00
26443;BME280;5563;52.296;6.806;2023-07-31T07:36:11;100533.50;;;15.46;100.00
26443;BME280;5563;52.296;6.806;2023-07-31T07:38:40;100551.69;;;15.60;100.00
26443;BME280;5563;52.296;6.806;2023-07-31T07:41:14;100541.63;;;15.62;100.00
26443;BME280;5563;52.296;6.806;2023-07-31T07:43:41;100543.28;;;15.63;100.00
26443;BME280;5563;52.296;6.806;2023-07-31T07:46:14;100543.97;;;15.65;100.00
26443;BME280;5563;52.296;6.806;2023-07-31T07:48:41;100544.47;;;15.68;100.00
26443;BME280;5563;52.296;6.806;2023-07-31T07:51:14;100543.50;;;15.69;100.00
26443;BME280;5563;52.296;6.806;2023-07-31T07:53:49;100531.56;;;15.64;100.00
26443;BME280;5563;52.296;6.806;2023-07-31T07:56:29;100532.41;;;15.72;100.00
26443;BME280;5563;52.296;6.806;2023-07-31T07:58:56;100521.31;;;15.75;100.00
26443;BME280;5563;52.296;6.806;2023-07-31T08:01:29;100529.25;;;15.85;100.00
26443;BME280;5563;52.296;6.806;2023-07-31T08:04:02;100520.16;;;15.86;100.00
26443;BME280;5563;52.296;6.806;2023-07-31T08:06:37;100510.75;;;15.90;100.00
26443;BME280;5563;52.296;6.806;2023-07-31T08:09:10;100503.72;;;15.89;100.00
26443;BME280;5563;52.296;6.806;2023-07-31T08:11:37;100508.59;;;15.93;100.00
26443;BME280;5563;52.296;6.806;2023-07-31T08:14:10;100510.09;;;16.04;100.00
26443;BME280;5563;52.296;6.806;2023-07-31T08:16:38;100498.16;;;15.98;100.00
26443;BME280;5563;52.296;6.806;2023-07-31T08:19:11;100507.75;;;16.09;100.00
26443;BME280;5563;52.296;6.806;2023-07-31T08:21:45;100494.47;;;16.07;100.00
26443;BME280;5563;52.296;6.806;2023-07-31T08:24:25;100519.88;;;16.13;100.00
26443;BME280;5563;52.296;6.806;2023-07-31T08:26:52;100501.22;;;16.11;100.00
26443;BME280;5563;52.296;6.806;2023-07-31T08:29:25;100492.63;;;16.08;100.00
26443;BME280;5563;52.296;6.806;2023-07-31T08:31:59;100497.00;;;16.17;100.00
26443;BME280;5563;52.296;6.806;2023-07-31T08:34:33;100494.31;;;16.17;100.00
26443;BME280;5563;52.296;6.806;2023-07-31T08:37:00;100494.66;;;16.22;100.00
26443;BME280;5563;52.296;6.806;2023-07-31T08:39:36;100492.47;;;16.17;100.00
26443;BME280;5563;52.296;6.806;2023-07-31T08:42:09;100497.88;;;16.17;100.00
26443;BME280;5563;52.296;6.806;2023-07-31T08:44:43;100495.34;;;16.24;100.00
26443;BME280;5563;52.296;6.806;2023-07-31T08:47:10;100499.50;;;16.27;100.00
26443;BME280;5563;52.296;6.806;2023-07-31T08:49:38;100479.69;;;16.19;100.00
26443;BME280;5563;52.296;6.806;2023-07-31T08:52:11;100470.28;;;16.23;100.00
26443;BME280;5563;52.296;6.806;2023-07-31T08:54:38;100500.69;;;16.32;100.00
26443;BME280;5563;52.296;6.806;2023-07-31T08:57:13;100499.72;;;16.33;100.00
26443;BME280;5563;52.296;6.806;2023-07-31T08:59:41;100501.06;;;16.37;100.00
26443;BME280;5563;52.296;6.806;2023-07-31T09:02:30;100478.34;;;16.32;100.00
26443;BME280;5563;52.296;6.806;2023-07-31T09:05:12;100492.28;;;16.43;100.00
26443;BME280;5563;52.296;6.806;2023-07-31T09:07:47;100492.97;;;16.45;100.00
26443;BME280;5563;52.296;6.806;2023-07-31T09:10:17;100475.63;;;16.40;100.00
26443;BME280;5563;52.296;6.806;2023-07-31T09:12:51;100475.28;;;16.43;100.00
26443;BME280;5563;52.296;6.806;2023-07-31T09:15:19;100479.50;;;16.45;100.00
26443;BME280;5563;52.296;6.806;2023-07-31T09:18:04;100487.94;;;16.50;100.00
26443;BME280;5563;52.296;6.806;2023-07-31T09:20:32;100472.47;;;16.44;100.00
26443;BME280;5563;52.296;6.806;2023-07-31T09:23:14;100478.38;;;16.48;100.00
26443;BME280;5563;52.296;6.806;2023-07-31T09:25:46;100470.59;;;16.45;100.00
26443;BME280;5563;52.296;6.806;2023-07-31T09:28:19;100480.19;;;16.55;100.00
26443;BME280;5563;52.296;6.806;2023-07-31T09:30:51;100468.25;;;16.50;100.00
26443;BME280;5563;52.296;6.806;2023-07-31T09:33:24;100474.47;;;16.58;100.00
26443;BME280;5563;52.296;6.806;2023-07-31T09:35:58;100474.97;;;16.62;100.00
26443;BME280;5563;52.296;6.806;2023-07-31T09:38:33;100478.16;;;16.65;100.00
26443;BME280;5563;52.296;6.806;2023-07-31T09:41:13;100466.91;;;16.62;100.00
26443;BME280;5563;52.296;6.806;2023-07-31T09:43:53;100478.00;;;16.67;100.00
26443;BME280;5563;52.296;6.806;2023-07-31T09:46:21;100467.72;;;16.70;100.00
26443;BME280;5563;52.296;6.806;2023-07-31T09:49:13;100461.13;;;16.81;100.00
26443;BME280;5563;52.296;6.806;2023-07-31T09:51:41;100442.47;;;16.71;100.00
26443;BME280;5563;52.296;6.806;2023-07-31T09:54:16;100452.56;;;16.77;100.00
26443;BME280;5563;52.296;6.806;2023-07-31T09:56:45;100448.53;;;16.73;100.00
26443;BME280;5563;52.296;6.806;2023-07-31T09:59:19;100469.38;;;16.79;100.00
26443;BME280;5563;52.296;6.806;2023-07-31T10:01:54;100459.09;;;16.83;100.00
26443;BME280;5563;52.296;6.806;2023-07-31T10:04:30;100453.38;;;16.86;100.00
26443;BME280;5563;52.296;6.806;2023-07-31T10:07:04;100450.84;;;16.84;100.00
26443;BME280;5563;52.296;6.806;2023-07-31T10:09:32;100454.03;;;16.88;100.00
26443;BME280;5563;52.296;6.806;2023-07-31T10:12:24;100443.78;;;16.83;100.00
26443;BME280;5563;52.296;6.806;2023-07-31T10:14:59;100443.09;;;16.89;100.00
26443;BME280;5563;52.296;6.806;2023-07-31T10:17:42;100466.78;;;17.02;100.00
26443;BME280;5563;52.296;6.806;2023-07-31T10:20:10;100453.50;;;17.00;100.00
26443;BME280;5563;52.296;6.806;2023-07-31T10:22:45;100462.25;;;17.02;100.00
26443;BME280;5563;52.296;6.806;2023-07-31T10:25:21;100458.50;;;17.03;100.00
26443;BME280;5563;52.296;6.806;2023-07-31T10:28:11;100456.50;;;17.05;100.00
26443;BME280;5563;52.296;6.806;2023-07-31T10:30:45;100452.63;;;17.08;100.00
26443;BME280;5563;52.296;6.806;2023-07-31T10:33:26;100463.53;;;17.14;100.00
26443;BME280;5563;52.296;6.806;2023-07-31T10:36:21;100459.00;;;17.15;100.00
26443;BME280;5563;52.296;6.806;2023-07-31T10:38:55;100450.72;;;17.16;100.00
26443;BME280;5563;52.296;6.806;2023-07-31T10:41:31;100454.09;;;17.18;100.00
26443;BME280;5563;52.296;6.806;2023-07-31T10:44:08;100447.88;;;17.10;100.00
26443;BME280;5563;52.296;6.806;2023-07-31T10:46:36;100454.59;;;17.14;100.00
26443;BME280;5563;52.296;6.806;2023-07-31T10:49:10;100441.47;;;17.11;100.00
26443;BME280;5563;52.296;6.806;2023-07-31T10:51:55;100454.59;;;17.14;100.00
26443;BME280;5563;52.296;6.806;2023-07-31T10:54:28;100452.69;;;17.22;100.00
26443;BME280;5563;52.296;6.806;2023-07-31T10:57:01;100438.91;;;17.25;100.00
26443;BME280;5563;52.296;6.806;2023-07-31T10:59:34;100441.72;;;17.32;100.00
26443;BME280;5563;52.296;6.806;2023-07-31T11:02:24;100446.91;;;17.34;100.00
26443;BME280;5563;52.296;6.806;2023-07-31T11:05:11;100442.19;;;17.36;100.00
26443;BME280;5563;52.296;6.806;2023-07-31T11:07:49;100434.28;;;17.34;100.00
26443;BME280;5563;52.296;6.806;2023-07-31T11:10:22;100442.19;;;17.36;100.00
26443;BME280;5563;52.296;6.806;2023-07-31T11:12:57;100445.38;;;17.39;100.00
26443;BME280;5563;52.296;6.806;2023-07-31T11:15:30;100425.00;;;17.37;100.00
26443;BME280;5563;52.296;6.806;2023-07-31T11:18:03;100438.81;;;17.42;100.00
26443;BME280;5563;52.296;6.806;2023-07-31T11:20:40;100436.59;;;17.45;100.00
26443;BME280;5563;52.296;6.806;2023-07-31T11:23:21;100426.00;;;17.44;100.00
26443;BME280;5563;52.296;6.806;2023-07-31T11:25:49;100438.81;;;17.42;100.00
26443;BME280;5563;52.296;6.806;2023-07-31T11:28:23;100433.91;;;17.45;100.00
26443;BME280;5563;52.296;6.806;2023-07-31T11:30:51;100442.50;;;17.49;100.00
26443;BME280;5563;52.296;6.806;2023-07-31T11:33:34;100433.75;;;17.47;100.00
26443;BME280;5563;52.296;6.806;2023-07-31T11:36:01;100433.06;;;17.45;100.00
26443;BME280;5563;52.296;6.806;2023-07-31T11:38:34;100435.75;;;17.45;100.00
26443;BME280;5563;52.296;6.806;2023-07-31T11:41:07;100441.84;;;17.39;100.00
26443;BME280;5563;52.296;6.806;2023-07-31T11:43:34;100434.28;;;17.34;100.00
26443;BME280;5563;52.296;6.806;2023-07-31T11:46:09;100427.06;;;17.35;100.00
26443;BME280;5563;52.296;6.806;2023-07-31T11:48:43;100437.78;;;17.43;100.00
26443;BME280;5563;52.296;6.806;2023-07-31T11:51:12;100438.59;;;17.51;100.00
26443;BME280;5563;52.296;6.806;2023-07-31T11:53:57;100429.44;;;17.60;100.00
26443;BME280;5563;52.296;6.806;2023-07-31T11:56:25;100434.78;;;17.68;100.00
26443;BME280;5563;52.296;6.806;2023-07-31T11:59:00;100434.00;;;17.82;100.00
26443;BME280;5563;52.296;6.806;2023-07-31T12:01:36;100432.09;;;17.91;100.00
26443;BME280;5563;52.296;6.806;2023-07-31T12:04:10;100433.03;;;17.98;100.00
26443;BME280;5563;52.296;6.806;2023-07-31T12:06:37;100428.22;;;18.08;100.00
26443;BME280;5563;52.296;6.806;2023-07-31T12:09:14;100422.69;;;18.24;100.00
26443;BME280;5563;52.296;6.806;2023-07-31T12:11:44;100421.69;;;18.40;100.00
26443;BME280;5563;52.296;6.806;2023-07-31T12:14:25;100419.78;;;18.63;100.00
26443;BME280;5563;52.296;6.806;2023-07-31T12:16:56;100419.25;;;18.82;100.00
26443;BME280;5563;52.296;6.806;2023-07-31T12:19:30;100419.59;;;18.93;100.00
26443;BME280;5563;52.296;6.806;2023-07-31T12:22:14;100418.81;;;19.14;100.00
26443;BME280;5563;52.296;6.806;2023-07-31T12:25:02;100417.06;;;19.21;100.00
26443;BME280;5563;52.296;6.806;2023-07-31T12:27:32;100411.75;;;19.13;99.77
26443;BME280;5563;52.296;6.806;2023-07-31T12:30:26;100411.28;;;19.09;100.00
26443;BME280;5563;52.296;6.806;2023-07-31T12:32:53;100416.88;;;19.08;100.00
26443;BME280;5563;52.296;6.806;2023-07-31T12:35:35;100414.91;;;19.02;99.95
26443;BME280;5563;52.296;6.806;2023-07-31T12:38:08;100418.47;;;19.02;100.00
26443;BME280;5563;52.296;6.806;2023-07-31T12:40:39;100414.84;;;18.95;100.00
26443;BME280;5563;52.296;6.806;2023-07-31T12:43:13;100421.09;;;18.81;100.00
26443;BME280;5563;52.296;6.806;2023-07-31T12:45:40;100416.25;;;18.62;100.00
26443;BME280;5563;52.296;6.806;2023-07-31T12:48:13;100418.47;;;18.44;100.00
26443;BME280;5563;52.296;6.806;2023-07-31T12:50:40;100413.88;;;18.30;100.00
26443;BME280;5563;52.296;6.806;2023-07-31T12:53:15;100411.41;;;18.20;100.00
26443;BME280;5563;52.296;6.806;2023-07-31T12:55:42;100409.09;;;18.17;100.00
26443;BME280;5563;52.296;6.806;2023-07-31T12:58:15;100410.66;;;18.12;100.00
26443;BME280;5563;52.296;6.806;2023-07-31T13:00:42;100413.72;;;18.09;100.00
26443;BME280;5563;52.296;6.806;2023-07-31T13:03:16;100408.34;;;18.09;100.00
26443;BME280;5563;52.296;6.806;2023-07-31T13:05:43;100405.97;;;18.06;100.00
26443;BME280;5563;52.296;6.806;2023-07-31T13:08:16;100411.94;;;18.01;100.00
26443;BME280;5563;52.296;6.806;2023-07-31T13:10:44;100402.72;;;17.96;100.00
26443;BME280;5563;52.296;6.806;2023-07-31T13:13:11;100398.03;;;17.90;100.00
26443;BME280;5563;52.296;6.806;2023-07-31T13:15:44;100397.56;;;17.86;100.00
26443;BME280;5563;52.296;6.806;2023-07-31T13:18:18;100391.16;;;17.87;100.00
26443;BME280;5563;52.296;6.806;2023-07-31T13:20:46;100383.72;;;17.89;100.00
26443;BME280;5563;52.296;6.806;2023-07-31T13:23:33;100382.69;;;17.90;100.00
26443;BME280;5563;52.296;6.806;2023-07-31T13:26:06;100377.59;;;17.95;100.00